Ana Sayfa
METAR-TAF:

METAR-TAF

Havaalanları :

Waterbury-Oxford Airport

Oxford, Connecticut, Amerika Birleşik Devletleri

Enlem: 41-29N, Boylam: 073-08W, yükseklik: 222 m

Güncel hava durumu gözlemi

Rapor saat 04:51 UTC de 29 dakika önce yapıldı.
Rüzgar kuzeydan 4 kt
Sıcaklık 24°C
Nem 74%
Basınç 1012 hPa
Görüş mesafesi: 16.1 km
Açık gökyüzü

METAR: KOXC 220451Z AUTO 35004KT 10SM CLR 24/19 A2988 RMK AO2 SLP124 T02390194 403440228

Saat: 01:20 (05:20 UTC)


TAF: eksik

4.000'den fazla havaalanı için hava durumu gözlemleri ve tahminleri (METAR ve TAF raporları).

Kullanılabilir istasyonlar harita üzerinde sarı ve kırmızı noktalarla gösterilir.

İstasyonun adını görmek için fareyi noktanın üzerinde gezdirin.

Sonrasında hava gözlem ve tahminlerini görmek için tıklayın.

Haritayı değiştirmek için: yaklaştırmak için siyah artı işaretli yeşil düğmeye ve uzaklaştırmak için de eksi işaretli düğmeye hızla tıklayın; bitişik haritalar için yeşil okları kullanın.


METAR-TAF: